Time;durP1;ratioP1;P1;durP2;ratioP2;P2;SDS_P1;SDS_P2;PMS_P1;PMS_P2;Temp;Humidity;BMP_temperature;BMP_pressure;BME280_temperature;BME280_humidity;BME280_pressure;Samples;Min_cycle;Max_cycle;Signal;HPM_P1;HPM_P2
2022/12/07 00:01:13;;;;;;;7.22;1.83;;;3.70;99.90;;;;;;7376254;19;20414;-45
2022/12/07 00:03:41;;;;;;;7.05;1.35;;;3.70;99.90;;;;;;7380243;19;20025;-49
2022/12/07 00:06:10;;;;;;;9.98;1.58;;;3.60;99.90;;;;;;7382349;19;20025;-48
2022/12/07 00:08:37;;;;;;;5.82;1.45;;;3.60;99.90;;;;;;7381560;19;20410;-46
2022/12/07 00:11:06;;;;;;;5.60;1.67;;;3.50;99.90;;;;;;7381915;19;20022;-46
2022/12/07 00:13:33;;;;;;;8.63;1.52;;;3.40;99.90;;;;;;7380880;19;20022;-48
2022/12/07 00:16:14;;;;;;;7.70;1.73;;;3.40;99.90;;;;;;7383306;19;20392;-44
2022/12/07 00:18:41;;;;;;;5.35;1.80;;;3.30;99.90;;;;;;7383061;19;20502;-45
2022/12/07 00:21:11;;;;;;;4.05;1.52;;;3.30;99.90;;;;;;7379620;19;20421;-48
2022/12/07 00:23:38;;;;;;;6.50;2.22;;;3.30;99.90;;;;;;7382693;19;20022;-45
2022/12/07 00:26:19;;;;;;;8.10;2.30;;;3.30;99.90;;;;;;7382018;19;20530;-46
2022/12/07 00:28:47;;;;;;;6.45;2.17;;;3.30;99.90;;;;;;7381709;19;20623;-47
2022/12/07 00:31:18;;;;;;;6.07;1.55;;;3.40;99.90;;;;;;7377010;19;20010;-46
2022/12/07 00:33:45;;;;;;;9.18;2.30;;;3.40;99.90;;;;;;7374159;19;20046;-49
2022/12/07 00:36:14;;;;;;;5.40;2.35;;;3.50;99.90;;;;;;7372969;19;20502;-45
2022/12/07 00:38:41;;;;;;;6.22;1.90;;;3.60;99.90;;;;;;7374126;19;20048;-49
2022/12/07 00:41:12;;;;;;;5.97;1.75;;;3.60;99.90;;;;;;7370989;19;20038;-44
2022/12/07 00:43:38;;;;;;;9.88;2.03;;;3.60;99.90;;;;;;7373232;19;20020;-49
2022/12/07 00:46:05;;;;;;;6.97;1.58;;;3.60;99.90;;;;;;7373041;19;20026;-47
2022/12/07 00:48:31;;;;;;;9.30;2.15;;;3.60;99.90;;;;;;7369770;19;20018;-45
2022/12/07 00:50:57;;;;;;;11.15;2.08;;;3.60;99.90;;;;;;7367483;19;20023;-45
2022/12/07 00:53:24;;;;;;;6.38;1.58;;;3.50;99.90;;;;;;7369953;19;20026;-45
2022/12/07 00:55:50;;;;;;;25.88;3.10;;;3.50;99.90;;;;;;7370644;19;20014;-45
2022/12/07 00:58:17;;;;;;;4.25;1.65;;;3.40;99.90;;;;;;7360663;19;20026;-46
2022/12/07 01:00:43;;;;;;;6.82;2.35;;;3.40;99.90;;;;;;7370699;19;20015;-47
2022/12/07 01:03:12;;;;;;;6.97;1.95;;;3.40;99.90;;;;;;7375530;19;20086;-45
2022/12/07 01:05:39;;;;;;;5.97;2.08;;;3.40;99.90;;;;;;7374491;19;20019;-44
2022/12/07 01:08:06;;;;;;;6.97;2.05;;;3.30;99.90;;;;;;7371461;19;20014;-46
2022/12/07 01:10:33;;;;;;;10.05;2.00;;;3.30;99.90;;;;;;7365775;19;20073;-45
2022/12/07 01:12:59;;;;;;;7.65;2.05;;;3.40;99.90;;;;;;7374874;19;20014;-44
2022/12/07 01:15:26;;;;;;;7.78;2.78;;;3.30;99.90;;;;;;7373663;19;20022;-45
2022/12/07 01:17:52;;;;;;;9.52;3.13;;;3.40;99.90;;;;;;7373657;19;20030;-46
2022/12/07 01:20:18;;;;;;;10.20;2.10;;;3.50;99.90;;;;;;7368676;19;20022;-45
2022/12/07 01:22:45;;;;;;;7.15;1.88;;;3.50;99.90;;;;;;7372408;19;20078;-48
2022/12/07 01:25:12;;;;;;;11.02;2.25;;;3.50;99.90;;;;;;7369615;19;20022;-45
2022/12/07 01:27:38;;;;;;;8.40;2.05;;;3.50;99.90;;;;;;7376724;19;20026;-46
2022/12/07 01:30:06;;;;;;;10.07;2.20;;;3.50;99.90;;;;;;7371555;19;20029;-46
2022/12/07 01:32:33;;;;;;;13.50;2.47;;;3.40;99.90;;;;;;7369434;19;20018;-49
2022/12/07 01:34:59;;;;;;;8.07;1.88;;;3.40;99.90;;;;;;7372557;19;20018;-46
2022/12/07 01:37:26;;;;;;;8.15;1.55;;;3.40;99.90;;;;;;7371708;19;20018;-45
2022/12/07 01:39:52;;;;;;;5.95;1.48;;;3.40;99.90;;;;;;7371659;19;20042;-44
2022/12/07 01:42:19;;;;;;;12.18;1.80;;;3.40;99.90;;;;;;7372549;19;20668;-44
2022/12/07 01:45:23;;;;;;;6.13;1.73;;;3.50;99.90;;;;;;7367722;19;20018;-44
2022/12/07 01:47:55;;;;;;;4.68;1.50;;;3.50;99.90;;;;;;7372635;19;20015;-44
2022/12/07 01:50:24;;;;;;;5.97;1.50;;;3.60;99.90;;;;;;7371126;19;20373;-45
2022/12/07 01:52:53;;;;;;;9.13;1.52;;;3.60;99.90;;;;;;7372002;19;20018;-44
2022/12/07 01:55:20;;;;;;;5.07;1.40;;;3.70;99.90;;;;;;7374484;19;20303;-44
2022/12/07 01:57:51;;;;;;;8.40;2.60;;;3.70;99.90;;;;;;7375913;19;20018;-47
2022/12/07 02:00:18;;;;;;;;;;;3.80;99.90;;;;;;7373058;19;20014;-45
2022/12/07 02:02:59;;;;;;;5.38;1.55;;;3.80;99.90;;;;;;7370007;19;20310;-44
2022/12/07 02:05:26;;;;;;;5.25;1.48;;;3.80;99.90;;;;;;7371340;19;20014;-46
2022/12/07 02:07:56;;;;;;;6.43;1.50;;;3.90;99.90;;;;;;7374659;19;20560;-47
2022/12/07 02:10:26;;;;;;;3.40;1.30;;;3.90;99.90;;;;;;7372805;19;20452;-47
2022/12/07 02:13:03;;;;;;;5.95;1.50;;;3.80;99.90;;;;;;7369235;19;20598;-49
2022/12/07 02:15:56;;;;;;;6.25;1.10;;;3.80;99.90;;;;;;7372750;19;20620;-44
2022/12/07 02:18:46;;;;;;;6.28;1.48;;;3.70;99.90;;;;;;7368228;19;20509;-44
2022/12/07 02:21:28;;;;;;;8.82;1.50;;;3.70;99.90;;;;;;7371533;19;20473;-45
2022/12/07 02:24:13;;;;;;;9.40;1.80;;;3.60;99.90;;;;;;7365941;19;20022;-44
2022/12/07 02:26:51;;;;;;;6.32;1.40;;;3.60;99.90;;;;;;7370287;19;20015;-44
2022/12/07 02:29:32;;;;;;;4.75;1.33;;;3.50;99.90;;;;;;7368797;19;20021;-48
2022/12/07 02:32:43;;;;;;;7.07;2.10;;;3.50;99.90;;;;;;7372819;19;20014;-47
2022/12/07 02:35:17;;;;;;;7.82;1.85;;;3.40;99.90;;;;;;7365522;19;20346;-46
2022/12/07 02:37:53;;;;;;;7.15;1.83;;;3.30;99.90;;;;;;7371825;19;20470;-45
2022/12/07 02:40:23;;;;;;;7.55;2.30;;;3.30;99.90;;;;;;7367269;19;20479;-44
2022/12/07 02:43:18;;;;;;;8.23;2.83;;;3.30;99.90;;;;;;7369193;19;20021;-45
2022/12/07 02:45:46;;;;;;;7.15;3.22;;;3.30;99.90;;;;;;7370325;19;20014;-47
2022/12/07 02:48:15;;;;;;;7.75;2.80;;;3.40;99.90;;;;;;7367848;19;20022;-46
2022/12/07 02:50:48;;;;;;;8.30;3.00;;;3.30;99.90;;;;;;7368923;19;20520;-45
2022/12/07 02:53:30;;;;;;;11.73;3.75;;;3.30;99.90;;;;;;7368693;19;20018;-45
2022/12/07 02:55:57;;;;;;;7.43;3.08;;;3.30;99.90;;;;;;7367329;19;20041;-45
2022/12/07 02:58:36;;;;;;;8.27;3.13;;;3.30;99.90;;;;;;7367734;19;20018;-45
2022/12/07 03:01:19;;;;;;;10.60;3.38;;;3.40;99.90;;;;;;7366928;19;20023;-44
2022/12/07 03:03:53;;;;;;;9.57;2.80;;;3.40;99.90;;;;;;7370515;19;20379;-44
2022/12/07 03:06:31;;;;;;;9.30;2.92;;;3.50;99.90;;;;;;7368028;19;20015;-45
2022/12/07 03:09:26;;;;;;;5.32;2.55;;;3.50;99.90;;;;;;7369985;19;20658;-47
2022/12/07 03:12:08;;;;;;;7.57;2.70;;;3.50;99.90;;;;;;7365735;19;20375;-44
2022/12/07 03:14:40;;;;;;;5.95;2.28;;;3.50;99.90;;;;;;7368704;19;20557;-48
2022/12/07 03:17:20;;;;;;;10.63;2.63;;;3.40;99.90;;;;;;7370555;19;20011;-44
2022/12/07 03:19:51;;;;;;;7.75;2.15;;;3.40;99.90;;;;;;7370005;19;20022;-45
2022/12/07 03:22:19;;;;;;;7.10;1.87;;;3.30;99.90;;;;;;7370982;19;20880;-45
2022/12/07 03:24:55;;;;;;;12.18;2.05;;;3.40;99.90;;;;;;7368426;19;20019;-46
2022/12/07 03:27:24;;;;;;;8.77;1.40;;;3.40;99.90;;;;;;7367262;19;20022;-45
2022/12/07 03:30:12;;;;;;;7.25;1.52;;;3.50;99.90;;;;;;7368163;19;20362;-44
2022/12/07 03:32:49;;;;;;;5.13;1.40;;;3.50;99.90;;;;;;7368772;19;20038;-44
2022/12/07 03:35:27;;;;;;;3.95;1.30;;;3.60;99.90;;;;;;7371722;19;20018;-45
2022/12/07 03:38:21;;;;;;;9.55;1.40;;;3.70;99.90;;;;;;7368885;19;20031;-49
2022/12/07 03:40:54;;;;;;;5.93;2.53;;;3.70;99.90;;;;;;7368227;19;20022;-46
2022/12/07 03:43:21;;;;;;;8.70;1.48;;;3.70;99.90;;;;;;7366327;19;20019;-47
2022/12/07 03:46:07;;;;;;;6.50;1.75;;;3.60;99.90;;;;;;7368311;19;20026;-48
2022/12/07 03:49:00;;;;;;;5.40;1.08;;;3.60;99.90;;;;;;7368842;19;20014;-45
2022/12/07 03:51:36;;;;;;;6.85;1.08;;;3.50;99.90;;;;;;7366205;19;20014;-46
2022/12/07 03:54:25;;;;;;;4.95;1.10;;;3.40;99.90;;;;;;7366972;19;20031;-44
2022/12/07 03:56:52;;;;;;;7.63;1.40;;;3.40;99.90;;;;;;7373794;19;20557;-47
2022/12/07 03:59:20;;;;;;;3.90;1.20;;;3.40;99.90;;;;;;7367489;19;20043;-47
2022/12/07 04:01:54;;;;;;;4.95;1.58;;;3.40;99.90;;;;;;7369477;19;20029;-49
2022/12/07 04:04:21;;;;;;;12.05;1.27;;;3.40;99.90;;;;;;7368268;19;20120;-48
2022/12/07 04:06:47;;;;;;;8.10;1.02;;;3.40;99.90;;;;;;7374288;19;20043;-47
2022/12/07 04:09:14;;;;;;;7.57;1.23;;;3.30;99.90;;;;;;7374017;19;20042;-46
2022/12/07 04:11:40;;;;;;;9.60;1.20;;;3.30;99.90;;;;;;7381306;19;20018;-46
2022/12/07 04:14:18;;;;;;;5.63;0.90;;;3.30;99.90;;;;;;7372733;19;20025;-45
2022/12/07 04:17:05;;;;;;;3.15;1.45;;;3.30;99.90;;;;;;7373394;19;20528;-46
2022/12/07 04:19:33;;;;;;;5.18;1.30;;;3.30;99.90;;;;;;7375945;19;20019;-47
2022/12/07 04:22:02;;;;;;;7.50;2.35;;;3.30;99.90;;;;;;7376745;19;20086;-47
2022/12/07 04:24:28;;;;;;;3.45;1.27;;;3.30;99.90;;;;;;7375326;19;20018;-45
2022/12/07 04:26:54;;;;;;;9.27;1.33;;;3.40;99.90;;;;;;7378075;19;20022;-45
2022/12/07 04:29:21;;;;;;;6.53;1.05;;;3.30;99.90;;;;;;7376029;19;20018;-48
2022/12/07 04:31:48;;;;;;;3.90;1.00;;;3.30;99.90;;;;;;7370730;19;20561;-46
2022/12/07 04:34:15;;;;;;;5.70;1.63;;;3.20;99.90;;;;;;7374055;19;20026;-48
2022/12/07 04:36:42;;;;;;;5.22;1.05;;;3.10;99.90;;;;;;7377649;19;20074;-45
2022/12/07 04:39:18;;;;;;;6.22;1.27;;;3.00;99.90;;;;;;7372069;19;20029;-45
2022/12/07 04:41:45;;;;;;;3.92;0.77;;;3.00;99.90;;;;;;7370382;19;20022;-47
2022/12/07 04:44:14;;;;;;;8.50;1.25;;;2.90;99.90;;;;;;7373318;19;20486;-45
2022/12/07 04:46:41;;;;;;;7.18;1.17;;;2.90;99.90;;;;;;7378035;19;20540;-47
2022/12/07 04:49:07;;;;;;;7.32;1.17;;;3.00;99.90;;;;;;7371261;19;20019;-45
2022/12/07 04:51:34;;;;;;;10.82;1.10;;;3.00;99.90;;;;;;7377087;19;20018;-44
2022/12/07 04:54:00;;;;;;;8.63;1.67;;;3.00;99.90;;;;;;7375397;19;20033;-44
2022/12/07 04:56:26;;;;;;;7.28;1.17;;;3.00;99.90;;;;;;7373248;19;20022;-46
2022/12/07 04:58:54;;;;;;;3.45;1.02;;;3.00;99.90;;;;;;7372930;19;20028;-46
2022/12/07 05:01:21;;;;;;;7.97;2.13;;;3.00;99.90;;;;;;7369918;19;20034;-45
2022/12/07 05:03:49;;;;;;;7.07;1.00;;;3.00;99.90;;;;;;7373603;19;20033;-43
2022/12/07 05:06:15;;;;;;;4.55;1.00;;;3.00;99.90;;;;;;7371942;19;20026;-48
2022/12/07 05:08:42;;;;;;;8.50;1.05;;;3.00;99.90;;;;;;7371604;19;20033;-48
2022/12/07 05:11:37;;;;;;;7.28;1.27;;;2.90;99.90;;;;;;7375903;19;20010;-48
2022/12/07 05:13:56;;;;;;;7.35;1.25;;;2.90;99.90;;;;;;7371338;19;20474;-45
2022/12/07 05:16:23;;;;;;;9.23;1.67;;;2.90;99.90;;;;;;7373567;19;20019;-45
2022/12/07 05:18:49;;;;;;;6.38;1.30;;;2.90;99.90;;;;;;7368953;19;20398;-46
2022/12/07 05:21:15;;;;;;;4.90;1.40;;;2.90;99.90;;;;;;7368793;19;20052;-47
2022/12/07 05:23:41;;;;;;;6.40;1.20;;;2.90;99.90;;;;;;7372514;19;20014;-46
2022/12/07 05:26:07;;;;;;;3.50;0.80;;;3.00;99.90;;;;;;7368147;19;20023;-47
2022/12/07 05:28:34;;;;;;;11.73;2.65;;;3.00;99.90;;;;;;7366053;19;20081;-47
2022/12/07 05:31:00;;;;;;;10.32;1.55;;;3.00;99.90;;;;;;7358504;19;20516;-48
2022/12/07 05:33:26;;;;;;;5.07;1.10;;;3.00;99.90;;;;;;7363791;19;20018;-47
2022/12/07 05:35:52;;;;;;;5.57;1.73;;;3.00;99.90;;;;;;7366600;19;20672;-46
2022/12/07 05:38:19;;;;;;;6.38;1.02;;;2.90;99.90;;;;;;7358274;19;20019;-46
2022/12/07 05:40:45;;;;;;;2.72;1.30;;;2.90;99.90;;;;;;7361593;19;20095;-47
2022/12/07 05:43:11;;;;;;;5.75;1.35;;;2.90;99.90;;;;;;7364324;19;20482;-49
2022/12/07 05:45:37;;;;;;;4.68;1.20;;;2.80;99.90;;;;;;7363127;19;20026;-48
2022/12/07 05:48:03;;;;;;;7.13;1.20;;;2.80;99.90;;;;;;7362321;19;20636;-46
2022/12/07 05:50:30;;;;;;;6.75;2.38;;;2.70;99.90;;;;;;7359745;19;20672;-44
2022/12/07 05:53:02;;;;;;;10.52;1.73;;;2.70;99.90;;;;;;7365908;19;20478;-46
2022/12/07 05:55:28;;;;;;;4.25;1.35;;;2.70;99.90;;;;;;7358629;19;20037;-47
2022/12/07 06:00:39;;;;;;;9.23;1.30;;;2.70;99.90;;;;;;7354547;19;20014;-45
2022/12/07 06:03:05;;;;;;;4.50;1.27;;;2.60;99.90;;;;;;7362884;19;20561;-45
2022/12/07 06:05:32;;;;;;;11.65;1.75;;;2.50;99.90;;;;;;7358608;19;20366;-45
2022/12/07 06:07:58;;;;;;;6.78;1.27;;;2.50;99.90;;;;;;7362551;19;20019;-43
2022/12/07 06:10:24;;;;;;;5.57;1.65;;;2.40;99.90;;;;;;7362848;19;20029;-49
2022/12/07 06:12:51;;;;;;;7.20;1.38;;;2.40;99.90;;;;;;7366009;19;20463;-45
2022/12/07 06:15:17;;;;;;;2.70;0.80;;;2.40;99.90;;;;;;7360167;19;20030;-48
2022/12/07 06:17:43;;;;;;;6.53;1.02;;;2.40;99.90;;;;;;7360373;19;20049;-45
2022/12/07 06:20:09;;;;;;;8.13;1.42;;;2.30;99.90;;;;;;7362625;19;21337;-45
2022/12/07 06:22:35;;;;;;;6.85;1.35;;;2.40;99.90;;;;;;7361743;19;20010;-46
2022/12/07 06:25:03;;;;;;;6.45;1.30;;;2.30;99.90;;;;;;7359709;19;20014;-46
2022/12/07 06:27:30;;;;;;;7.50;1.30;;;2.40;99.90;;;;;;7359417;19;20007;-45
2022/12/07 06:29:56;;;;;;;9.20;1.65;;;2.40;99.90;;;;;;7358836;19;20018;-46
2022/12/07 06:32:22;;;;;;;9.32;1.20;;;2.50;99.90;;;;;;7359016;19;20048;-47
2022/12/07 06:34:48;;;;;;;11.63;2.40;;;2.60;99.90;;;;;;7359316;19;20018;-50
2022/12/07 06:37:16;;;;;;;3.92;1.15;;;2.70;99.90;;;;;;7363319;19;20036;-48
2022/12/07 06:39:42;;;;;;;6.35;1.30;;;2.70;99.90;;;;;;7356699;19;20030;-45
2022/12/07 06:42:09;;;;;;;6.70;1.15;;;2.80;99.90;;;;;;7356530;19;20011;-45
2022/12/07 06:44:35;;;;;;;8.50;2.28;;;2.80;99.90;;;;;;7356692;19;20090;-45
2022/12/07 06:47:02;;;;;;;7.75;1.15;;;2.90;99.90;;;;;;7362560;19;20506;-44
2022/12/07 06:49:28;;;;;;;4.82;1.20;;;2.90;99.90;;;;;;7354907;19;20023;-44
2022/12/07 06:51:54;;;;;;;6.25;1.20;;;2.90;99.90;;;;;;7356628;19;20747;-48
2022/12/07 06:54:20;;;;;;;5.35;1.10;;;2.80;99.90;;;;;;7358963;19;20022;-47
2022/12/07 06:56:46;;;;;;;7.10;1.55;;;2.80;99.90;;;;;;7351259;19;20482;-44
2022/12/07 06:59:13;;;;;;;14.05;1.50;;;2.80;99.90;;;;;;7356261;19;20101;-45
2022/12/07 07:01:39;;;;;;;9.13;1.80;;;2.80;99.90;;;;;;7353639;19;20031;-44
2022/12/07 07:04:06;;;;;;;8.23;1.58;;;2.80;99.90;;;;;;7356787;19;20639;-45
2022/12/07 07:06:33;;;;;;;6.13;1.30;;;2.80;99.90;;;;;;7351496;19;20550;-47
2022/12/07 07:08:59;;;;;;;9.15;1.40;;;2.90;99.90;;;;;;7362030;19;20015;-47
2022/12/07 07:11:26;;;;;;;8.73;1.98;;;3.00;99.90;;;;;;7353183;19;20037;-46
2022/12/07 07:13:53;;;;;;;5.97;1.27;;;3.10;99.90;;;;;;7361366;19;20038;-47
2022/12/07 07:16:19;;;;;;;4.57;1.38;;;3.20;99.90;;;;;;7360287;19;20011;-46
2022/12/07 07:18:46;;;;;;;5.03;1.20;;;3.20;99.90;;;;;;7359175;19;20588;-44
2022/12/07 07:21:12;;;;;;;5.65;1.08;;;3.30;99.90;;;;;;7354556;19;20026;-46
2022/12/07 07:23:38;;;;;;;8.57;1.70;;;3.30;99.90;;;;;;7360199;19;20018;-45
2022/12/07 07:26:04;;;;;;;7.40;1.63;;;3.30;99.90;;;;;;7362303;19;20010;-46
2022/12/07 07:28:31;;;;;;;7.45;1.23;;;3.30;99.90;;;;;;7359437;19;20611;-42
2022/12/07 07:30:57;;;;;;;7.20;1.48;;;3.30;99.90;;;;;;7358141;19;20121;-45
2022/12/07 07:33:23;;;;;;;5.97;1.13;;;3.30;99.90;;;;;;7354841;19;20019;-45
2022/12/07 07:35:49;;;;;;;6.60;1.30;;;3.30;99.90;;;;;;7360228;19;20054;-45
2022/12/07 07:38:16;;;;;;;4.07;1.20;;;3.20;99.90;;;;;;7360537;19;20025;-46
2022/12/07 07:40:42;;;;;;;9.50;1.45;;;3.20;99.90;;;;;;7360099;19;20362;-46
2022/12/07 07:43:08;;;;;;;4.35;1.30;;;3.10;99.90;;;;;;7366058;19;20018;-46
2022/12/07 07:45:34;;;;;;;6.18;1.48;;;3.00;99.90;;;;;;7368470;19;20017;-46
2022/12/07 07:48:00;;;;;;;6.78;1.63;;;3.00;99.90;;;;;;7364726;19;20027;-46
2022/12/07 07:50:26;;;;;;;5.38;1.27;;;3.00;99.90;;;;;;7368769;19;20134;-47
2022/12/07 07:52:53;;;;;;;6.82;1.65;;;3.00;99.90;;;;;;7366696;19;20010;-47
2022/12/07 07:55:19;;;;;;;4.57;1.65;;;3.00;99.90;;;;;;7368442;19;20351;-46
2022/12/07 07:57:45;;;;;;;6.40;1.58;;;3.10;99.90;;;;;;7366516;19;20014;-46
2022/12/07 08:00:14;;;;;;;6.75;1.60;;;3.10;99.90;;;;;;7366179;19;20377;-44
2022/12/07 08:02:42;;;;;;;7.97;1.73;;;3.20;99.90;;;;;;7362821;19;20397;-44
2022/12/07 08:05:13;;;;;;;4.25;1.20;;;3.20;99.90;;;;;;7367063;19;20014;-44
2022/12/07 08:07:40;;;;;;;9.07;1.60;;;3.40;99.90;;;;;;7366899;19;20923;-44
2022/12/07 08:10:10;;;;;;;7.57;2.45;;;3.30;99.90;;;;;;7368520;19;20029;-47
2022/12/07 08:13:10;;;;;;;10.60;1.75;;;3.30;99.90;;;;;;7363969;19;20485;-46
2022/12/07 08:15:25;;;;;;;8.82;1.73;;;3.30;99.90;;;;;;7367560;19;20502;-46
2022/12/07 08:17:52;;;;;;;6.07;1.02;;;3.40;99.90;;;;;;7365659;19;20015;-46
2022/12/07 08:20:18;;;;;;;7.00;1.30;;;3.40;99.90;;;;;;7365506;19;20018;-44
2022/12/07 08:22:44;;;;;;;7.30;1.23;;;3.50;99.90;;;;;;7363238;19;20015;-44
2022/12/07 08:25:10;;;;;;;5.70;1.40;;;3.50;99.90;;;;;;7366025;19;20014;-44
2022/12/07 08:27:36;;;;;;;7.07;1.27;;;3.50;99.90;;;;;;7366902;19;20668;-46
2022/12/07 08:30:03;;;;;;;9.18;1.52;;;3.60;99.90;;;;;;7365115;19;20015;-44
2022/12/07 08:32:29;;;;;;;5.20;1.10;;;3.50;99.90;;;;;;7363982;19;20018;-45
2022/12/07 08:34:56;;;;;;;6.18;1.10;;;3.50;99.90;;;;;;7367357;19;20025;-44
2022/12/07 08:37:22;;;;;;;7.43;1.73;;;3.40;99.90;;;;;;7363725;19;20010;-43
2022/12/07 08:39:48;;;;;;;8.15;1.45;;;3.40;99.90;;;;;;7368392;19;20064;-45
2022/12/07 08:42:14;;;;;;;7.10;1.30;;;3.30;99.90;;;;;;7358704;19;20018;-45
2022/12/07 08:44:40;;;;;;;7.55;1.63;;;3.30;99.90;;;;;;7367606;19;20374;-45
2022/12/07 08:47:08;;;;;;;6.82;1.20;;;3.40;99.90;;;;;;7362871;19;20470;-44
2022/12/07 08:49:39;;;;;;;9.40;1.83;;;3.50;99.90;;;;;;7366046;19;20626;-46
2022/12/07 08:52:06;;;;;;;6.80;1.13;;;3.70;99.90;;;;;;7363550;19;20015;-44
2022/12/07 08:54:36;;;;;;;3.55;1.00;;;4.00;99.90;;;;;;7363886;19;20078;-46
2022/12/07 08:57:03;;;;;;;5.20;0.98;;;4.10;99.90;;;;;;7365175;19;20054;-45
2022/12/07 08:59:30;;;;;;;5.63;1.35;;;4.20;99.90;;;;;;7367110;19;20087;-46
2022/12/07 09:01:56;;;;;;;6.45;1.40;;;4.10;99.90;;;;;;7364848;19;20056;-44
2022/12/07 09:04:22;;;;;;;6.72;1.25;;;4.10;99.90;;;;;;7362254;19;20014;-44
2022/12/07 09:06:49;;;;;;;4.10;1.63;;;4.00;99.90;;;;;;7364796;19;20018;-46
2022/12/07 09:09:16;;;;;;;4.40;1.40;;;3.90;99.90;;;;;;7360893;19;20018;-44
2022/12/07 09:11:42;;;;;;;6.10;1.23;;;3.90;99.90;;;;;;7365536;19;20014;-45
2022/12/07 09:14:08;;;;;;;9.70;1.95;;;3.80;99.90;;;;;;7363472;19;20022;-48
2022/12/07 09:16:35;;;;;;;4.32;0.98;;;3.90;99.90;;;;;;7362590;19;20070;-48
2022/12/07 09:19:01;;;;;;;9.02;1.77;;;3.90;99.90;;;;;;7365255;19;20466;-46
2022/12/07 09:21:27;;;;;;;8.70;1.45;;;3.90;99.90;;;;;;7362913;19;20015;-45
2022/12/07 09:23:53;;;;;;;4.25;1.45;;;3.90;99.90;;;;;;7361673;19;20468;-44
2022/12/07 09:26:19;;;;;;;7.82;1.52;;;3.80;99.90;;;;;;7363292;19;20042;-47
2022/12/07 09:28:45;;;;;;;7.70;1.80;;;3.80;99.90;;;;;;7363878;19;20339;-44
2022/12/07 09:31:12;;;;;;;6.90;1.50;;;3.70;99.90;;;;;;7362619;19;20811;-48
2022/12/07 09:33:38;;;;;;;5.93;1.58;;;3.80;99.90;;;;;;7363694;19;20019;-46
2022/12/07 09:36:05;;;;;;;10.88;2.03;;;3.90;99.90;;;;;;7365031;19;20046;-44
2022/12/07 09:38:32;;;;;;;8.77;1.60;;;4.00;99.90;;;;;;7365837;19;20034;-45
2022/12/07 09:41:05;;;;;;;6.53;1.85;;;4.00;99.90;;;;;;7359777;19;20026;-45
2022/12/07 09:43:31;;;;;;;11.05;1.70;;;4.10;99.90;;;;;;7362685;19;20010;-47
2022/12/07 09:45:57;;;;;;;11.85;1.67;;;4.20;99.90;;;;;;7361486;19;20798;-47
2022/12/07 09:48:44;;;;;;;5.40;2.00;;;4.50;99.90;;;;;;7365192;19;20091;-45
2022/12/07 09:51:22;;;;;;;4.75;1.65;;;4.70;99.90;;;;;;7364531;19;20012;-45
2022/12/07 09:53:49;;;;;;;7.50;1.48;;;5.00;99.90;;;;;;7361873;19;20014;-46
2022/12/07 09:56:18;;;;;;;6.85;1.70;;;5.10;99.90;;;;;;7364154;19;20027;-48
2022/12/07 09:58:46;;;;;;;7.50;1.65;;;5.10;99.90;;;;;;7362924;19;20018;-45
2022/12/07 10:01:19;;;;;;;6.88;1.60;;;5.10;99.90;;;;;;7363075;19;20018;-49
2022/12/07 10:03:58;;;;;;;9.45;2.55;;;5.00;99.90;;;;;;7361818;19;20022;-47
2022/12/07 10:06:25;;;;;;;9.32;1.70;;;5.00;99.90;;;;;;7363291;19;20021;-45
2022/12/07 10:08:51;;;;;;;7.85;1.90;;;5.00;99.90;;;;;;7364625;19;20015;-44
2022/12/07 10:11:18;;;;;;;4.90;1.38;;;4.90;99.90;;;;;;7363839;19;20543;-44
2022/12/07 10:13:52;;;;;;;6.90;1.40;;;4.90;99.90;;;;;;7362430;19;20047;-47
2022/12/07 10:16:27;;;;;;;7.50;1.77;;;4.80;99.90;;;;;;7364215;19;20011;-46
2022/12/07 10:18:54;;;;;;;6.05;1.33;;;4.90;99.90;;;;;;7362113;19;20022;-49
2022/12/07 10:21:27;;;;;;;11.18;2.00;;;4.90;99.90;;;;;;7359881;19;20424;-45
2022/12/07 10:24:03;;;;;;;6.38;1.67;;;4.80;99.90;;;;;;7359397;19;20015;-44
2022/12/07 10:26:50;;;;;;;5.90;1.52;;;4.90;99.90;;;;;;7360322;19;20019;-45
2022/12/07 10:29:20;;;;;;;7.38;1.63;;;4.90;99.90;;;;;;7362214;19;20381;-46
2022/12/07 10:31:54;;;;;;;6.00;1.70;;;4.90;99.90;;;;;;7361917;19;20014;-44
2022/12/07 10:34:26;;;;;;;10.45;1.73;;;5.00;99.90;;;;;;7361265;19;20050;-45
2022/12/07 10:37:06;;;;;;;4.50;1.40;;;5.10;99.90;;;;;;7365179;19;20621;-48
2022/12/07 10:39:44;;;;;;;5.57;1.48;;;5.10;99.90;;;;;;7363751;19;20533;-44
2022/12/07 10:42:19;;;;;;;5.03;1.38;;;5.20;99.90;;;;;;7363780;19;20874;-46
2022/12/07 10:44:47;;;;;;;2.47;1.70;;;5.20;99.90;;;;;;7362714;19;20458;-44
2022/12/07 10:47:44;;;;;;;5.15;1.63;;;5.30;99.90;;;;;;7363472;19;20623;-48
2022/12/07 10:50:34;;;;;;;4.65;1.10;;;5.40;99.90;;;;;;7362307;19;20498;-47
2022/12/07 10:53:21;;;;;;;6.20;1.23;;;5.50;99.90;;;;;;7363106;19;20371;-45
2022/12/07 10:56:15;;;;;;;8.57;1.52;;;5.70;99.90;;;;;;7360739;19;20029;-45
2022/12/07 10:58:47;;;;;;;10.98;2.17;;;6.20;99.90;;;;;;7364791;19;20023;-46
2022/12/07 11:01:47;;;;;;;6.00;1.40;;;6.30;99.90;;;;;;7362190;19;20018;-48
2022/12/07 11:04:27;;;;;;;4.90;1.17;;;6.40;99.90;;;;;;7360595;19;20018;-45
2022/12/07 11:07:18;;;;;;;3.53;1.17;;;6.30;99.90;;;;;;7363816;19;20015;-46
2022/12/07 11:10:05;;;;;;;8.85;2.03;;;6.40;99.90;;;;;;7363450;19;20488;-45
2022/12/07 11:13:04;;;;;;;11.30;1.60;;;6.40;99.90;;;;;;7360902;19;20608;-45
2022/12/07 11:15:55;;;;;;;5.35;1.25;;;6.70;99.90;;;;;;7360809;19;20580;-45
2022/12/07 11:18:52;;;;;;;6.50;1.50;;;6.60;99.90;;;;;;7358772;19;20025;-48
2022/12/07 11:21:35;;;;;;;12.77;1.10;;;6.60;99.90;;;;;;7358936;19;20478;-46
2022/12/07 11:24:17;;;;;;;6.22;1.58;;;6.50;99.90;;;;;;7362160;19;20086;-49
2022/12/07 11:26:52;;;;;;;5.32;1.23;;;6.50;99.90;;;;;;7364400;19;20603;-45
2022/12/07 11:29:36;;;;;;;7.07;2.47;;;6.30;99.90;;;;;;7358169;19;20019;-46
2022/12/07 11:32:19;;;;;;;5.82;1.58;;;6.10;99.90;;;;;;7361383;19;20018;-45
2022/12/07 11:34:51;;;;;;;6.18;1.48;;;6.10;99.90;;;;;;7360054;19;20010;-45
2022/12/07 11:37:25;;;;;;;4.78;1.30;;;6.10;99.90;;;;;;7360994;19;20033;-48
2022/12/07 11:39:55;;;;;;;4.78;1.60;;;6.30;99.90;;;;;;7362944;19;20046;-49
2022/12/07 11:42:29;;;;;;;6.50;1.70;;;6.20;99.90;;;;;;7357075;19;20022;-45
2022/12/07 11:45:13;;;;;;;5.38;1.30;;;6.20;99.90;;;;;;7361992;19;20017;-45
2022/12/07 11:47:51;;;;;;;7.28;1.52;;;6.20;99.90;;;;;;7361844;19;20035;-46
2022/12/07 11:50:27;;;;;;;4.72;1.38;;;6.30;99.90;;;;;;7359142;19;20356;-45
2022/12/07 11:53:10;;;;;;;6.07;1.27;;;6.30;99.90;;;;;;7359776;19;20015;-46
2022/12/07 11:55:57;;;;;;;6.30;1.08;;;6.50;99.90;;;;;;7359883;19;20036;-48
2022/12/07 11:58:58;;;;;;;7.45;1.42;;;6.60;99.90;;;;;;7352565;19;20725;-48
2022/12/07 12:01:28;;;;;;;2.97;1.02;;;6.60;99.90;;;;;;7354475;19;20414;-45
2022/12/07 12:04:10;;;;;;;5.22;1.20;;;6.80;99.90;;;;;;7352992;19;20398;-48
2022/12/07 12:06:45;;;;;;;7.35;1.83;;;7.00;99.90;;;;;;7356455;19;20031;-45
2022/12/07 12:09:17;;;;;;;12.95;1.75;;;7.60;99.90;;;;;;7358760;19;20019;-46
2022/12/07 12:12:13;;;;;;;6.15;1.10;;;8.30;99.90;;;;;;7352665;19;20018;-45
2022/12/07 12:15:05;;;;;;;6.10;1.63;;;8.60;99.90;;;;;;7350803;19;20948;-48
2022/12/07 12:17:56;;;;;;;4.55;1.13;;;8.80;99.90;;;;;;7355001;19;20637;-46
2022/12/07 12:20:47;;;;;;;4.20;1.45;;;8.60;99.90;;;;;;7353167;19;20054;-47
2022/12/07 12:23:30;;;;;;;6.13;1.20;;;8.50;99.90;;;;;;7359175;19;20580;-47
2022/12/07 12:26:01;;;;;;;7.50;2.00;;;8.10;99.90;;;;;;7355427;19;20030;-47
2022/12/07 12:28:29;;;;;;;5.40;1.25;;;7.70;99.90;;;;;;7362013;19;20023;-48
2022/12/07 12:31:20;;;;;;;6.30;1.45;;;7.70;99.90;;;;;;7366014;19;20049;-48
2022/12/07 12:33:55;;;;;;;9.85;1.88;;;7.50;99.90;;;;;;7356405;19;20465;-45
2022/12/07 12:36:25;;;;;;;8.15;1.52;;;7.40;99.90;;;;;;7366001;19;20536;-44
2022/12/07 12:39:07;;;;;;;10.27;1.67;;;7.50;99.90;;;;;;7363649;19;20031;-45
2022/12/07 12:41:36;;;;;;;6.88;1.08;;;7.60;99.90;;;;;;7365717;19;20023;-45
2022/12/07 12:44:23;;;;;;;7.68;2.25;;;7.50;99.90;;;;;;7364519;19;20046;-46
2022/12/07 12:47:03;;;;;;;7.60;1.48;;;7.70;99.90;;;;;;7368290;19;20014;-47
2022/12/07 12:49:29;;;;;;;7.05;1.88;;;7.90;99.90;;;;;;7368028;19;20014;-48
2022/12/07 12:52:21;;;;;;;7.40;1.83;;;8.20;99.90;;;;;;7369716;19;20029;-44
2022/12/07 12:55:01;;;;;;;7.85;1.35;;;8.10;99.90;;;;;;7365214;19;20018;-47
2022/12/07 12:57:30;;;;;;;8.90;1.63;;;7.90;99.90;;;;;;7365484;19;20042;-44
2022/12/07 13:00:03;;;;;;;3.10;1.40;;;7.80;99.90;;;;;;7366800;19;20375;-47
2022/12/07 13:02:36;;;;;;;6.20;1.50;;;7.60;99.90;;;;;;7371509;19;20074;-48
2022/12/07 13:05:18;;;;;;;3.75;1.20;;;7.30;99.90;;;;;;7373809;19;20011;-48
2022/12/07 13:07:46;;;;;;;7.68;1.63;;;7.10;99.90;;;;;;7373367;19;20014;-48
2022/12/07 13:10:30;;;;;;;9.07;1.27;;;6.90;99.90;;;;;;7375036;19;20472;-45
2022/12/07 13:13:14;;;;;;;7.65;1.45;;;6.80;99.90;;;;;;7374762;19;20011;-46
2022/12/07 13:15:50;;;;;;;4.35;1.00;;;6.70;99.90;;;;;;7370732;19;20122;-46
2022/12/07 13:18:37;;;;;;;3.40;0.93;;;6.60;99.90;;;;;;7374561;19;20046;-47
2022/12/07 13:21:06;;;;;;;5.50;1.17;;;6.40;99.90;;;;;;7374435;19;20028;-48
2022/12/07 13:23:42;;;;;;;2.70;0.80;;;6.20;99.90;;;;;;7370029;19;20022;-44